KSBP/SBP METAR and TAF weather

Enter ICAO airport designator
Station Type Date Time Source
KSBP METAR 2022/08/12 13:56 UTC NOAA

KSBP 121356Z 12003KT 10SM CLR 12/11 A2998 RMK AO2 SLP150 T01170111


Station Type Date Time Source
KSBP Decoded METAR 2022/08/12 13:56 UTC NOAA

SAN LUIS OBISPO MC CHESNEY, CA, United States (KSBP) 35-14N 120-38W 59M
Aug 12, 2022 - 09:56 AM EDT / 2022.08.12 1356 UTC
Wind: from the ESE (120 degrees) at 3 MPH (3 KT):0
Visibility: 10 mile(s):0
Sky conditions: clear
Temperature: 53.1 F (11.7 C)
Dew Point: 52.0 F (11.1 C)
Relative Humidity: 96%
Pressure (altimeter): 29.98 in. Hg (1015 hPa)
ob: KSBP 121356Z 12003KT 10SM CLR 12/11 A2998 RMK AO2 SLP150 T01170111
cycle: 14

Station Type Date Time Source
KSBP TAF 2022/08/12 12:24 UTC NOAA

TAF KSBP 121122Z 1212/1312 VRB03KT P6SM SKC
FM121600 31008KT P6SM SKC
FM122100 32017G25KT P6SM SKC
FM130300 31008KT P6SM SKC
FM130600 VRB03KT P6SM SKC

Example: see airport list